createdAt,value
2019-04-07T00:01:27.701Z,10.90
2019-04-07T00:04:20.392Z,10.80
2019-04-07T00:06:51.008Z,10.80
2019-04-07T00:09:20.867Z,10.80
2019-04-07T00:11:51.908Z,10.70
2019-04-07T00:14:21.522Z,10.70
2019-04-07T00:16:51.848Z,10.60
2019-04-07T00:19:22.158Z,10.60
2019-04-07T00:21:52.504Z,10.50
2019-04-07T00:24:22.822Z,10.60
2019-04-07T00:26:53.663Z,10.60
2019-04-07T00:29:24.239Z,10.70
2019-04-07T00:31:54.551Z,10.70
2019-04-07T00:34:24.860Z,10.60
2019-04-07T00:37:15.710Z,10.50
2019-04-07T00:39:45.658Z,10.50
2019-04-07T00:42:15.974Z,10.50
2019-04-07T00:44:46.612Z,10.40
2019-04-07T00:47:16.623Z,10.40
2019-04-07T00:49:47.541Z,10.30
2019-04-07T00:55:10.211Z,10.30
2019-04-07T00:57:40.723Z,10.20
2019-04-07T01:00:11.839Z,10.20
2019-04-07T01:02:45.041Z,10.20
2019-04-07T01:05:38.926Z,10.20
2019-04-07T01:08:06.419Z,10.20
2019-04-07T01:10:36.905Z,10.20
2019-04-07T01:13:06.735Z,10.10
2019-04-07T01:15:37.078Z,10.20
2019-04-07T01:18:07.788Z,10.30
2019-04-07T01:20:37.706Z,10.30
2019-04-07T01:23:08.153Z,10.20
2019-04-07T01:25:39.424Z,10.20
2019-04-07T01:28:08.666Z,10.10
2019-04-07T01:31:00.554Z,10.20
2019-04-07T01:33:31.400Z,10.20
2019-04-07T01:36:01.042Z,10.10
2019-04-07T01:38:33.423Z,10.10
2019-04-07T01:41:04.060Z,10.10
2019-04-07T01:43:38.591Z,10.00
2019-04-07T01:46:21.800Z,10.00
2019-04-07T01:49:11.753Z,9.90
2019-04-07T01:51:45.489Z,10.00
2019-04-07T01:54:17.991Z,10.00
2019-04-07T01:57:20.051Z,10.00
2019-04-07T01:59:49.592Z,9.90
2019-04-07T02:02:20.666Z,9.90
2019-04-07T02:05:09.709Z,9.90
2019-04-07T02:07:40.083Z,9.90
2019-04-07T02:10:09.785Z,9.80
2019-04-07T02:12:57.859Z,9.80
2019-04-07T02:15:45.385Z,9.80
2019-04-07T02:18:18.406Z,9.80
2019-04-07T02:21:04.312Z,9.80
2019-04-07T02:23:36.286Z,9.80
2019-04-07T02:26:13.619Z,9.70
2019-04-07T02:29:02.700Z,9.80
2019-04-07T02:31:38.450Z,9.70
2019-04-07T02:34:28.008Z,9.70
2019-04-07T02:37:03.054Z,9.80
2019-04-07T02:39:50.686Z,9.80
2019-04-07T02:42:39.629Z,9.70
2019-04-07T02:45:26.998Z,9.60
2019-04-07T02:47:57.689Z,9.60
2019-04-07T02:50:57.189Z,9.70
2019-04-07T02:53:30.881Z,9.80
2019-04-07T02:56:06.867Z,9.90
2019-04-07T02:58:37.993Z,9.80
2019-04-07T03:01:14.777Z,9.80
2019-04-07T03:03:50.567Z,9.60
2019-04-07T03:06:47.025Z,9.40
2019-04-07T03:09:09.128Z,9.50
2019-04-07T03:11:46.567Z,9.50
2019-04-07T03:14:19.906Z,9.50
2019-04-07T03:16:58.770Z,9.50
2019-04-07T03:19:31.886Z,9.40
2019-04-07T03:22:11.192Z,9.50
2019-04-07T03:24:50.370Z,9.60
2019-04-07T03:27:38.473Z,9.60
2019-04-07T03:30:13.365Z,9.70
2019-04-07T03:32:49.341Z,9.50
2019-04-07T03:35:44.988Z,9.60
2019-04-07T03:38:19.065Z,9.50
2019-04-07T03:40:56.920Z,9.50
2019-04-07T03:43:30.412Z,9.50
2019-04-07T03:46:06.608Z,9.50
2019-04-07T03:48:45.949Z,9.40
2019-04-07T03:51:26.535Z,9.50
2019-04-07T03:54:15.425Z,9.50
2019-04-07T03:56:45.447Z,9.40
2019-04-07T04:02:00.206Z,9.60
2019-04-07T04:04:30.139Z,9.40
2019-04-07T04:07:17.145Z,9.40
2019-04-07T04:09:32.392Z,9.50
2019-04-07T04:12:01.741Z,9.50
2019-04-07T04:14:34.824Z,9.40
2019-04-07T04:17:05.111Z,9.50
2019-04-07T04:19:36.147Z,9.50
2019-04-07T04:22:07.415Z,9.50
2019-04-07T04:24:57.656Z,9.40
2019-04-07T04:27:28.152Z,9.40
2019-04-07T04:29:57.839Z,9.50
2019-04-07T04:32:28.953Z,9.50
2019-04-07T04:34:59.483Z,9.50
2019-04-07T04:37:40.391Z,9.40
2019-04-07T04:40:01.955Z,9.40
2019-04-07T04:42:38.482Z,9.30
2019-04-07T04:45:08.727Z,9.40
2019-04-07T04:47:39.372Z,9.60
2019-04-07T04:50:09.924Z,9.40
2019-04-07T04:52:40.921Z,9.30
2019-04-07T04:55:33.739Z,9.30
2019-04-07T04:58:04.240Z,9.30
2019-04-07T05:00:36.407Z,9.40
2019-04-07T05:03:09.774Z,9.30
2019-04-07T05:05:39.962Z,9.30
2019-04-07T05:08:11.482Z,9.40
2019-04-07T05:10:41.645Z,9.40
2019-04-07T05:13:19.870Z,9.30
2019-04-07T05:15:50.195Z,9.30
2019-04-07T05:18:20.067Z,9.30
2019-04-07T05:20:50.347Z,9.40
2019-04-07T05:23:20.593Z,9.20
2019-04-07T05:25:51.473Z,8.90
2019-04-07T05:28:21.269Z,9.10
2019-04-07T05:30:51.855Z,8.90
2019-04-07T05:33:21.787Z,9.10
2019-04-07T05:36:12.522Z,9.20
2019-04-07T05:38:42.840Z,9.00
2019-04-07T05:41:13.154Z,9.00
2019-04-07T05:43:43.484Z,9.00
2019-04-07T05:46:13.910Z,9.20
2019-04-07T05:48:44.553Z,9.10
2019-04-07T05:51:22.096Z,9.10
2019-04-07T05:53:52.827Z,9.10
2019-04-07T05:56:25.884Z,9.10
2019-04-07T05:58:53.770Z,9.10
2019-04-07T06:01:26.866Z,9.20
2019-04-07T06:03:58.196Z,9.00
2019-04-07T06:06:30.148Z,9.30
2019-04-07T06:09:00.457Z,9.30
2019-04-07T06:11:33.040Z,9.10
2019-04-07T06:14:02.125Z,9.10
2019-04-07T06:16:32.444Z,9.20
2019-04-07T06:19:06.976Z,9.20
2019-04-07T06:21:52.687Z,9.30
2019-04-07T06:24:22.681Z,9.30
2019-04-07T06:26:53.588Z,9.40
2019-04-07T06:29:26.308Z,9.40
2019-04-07T06:31:56.329Z,9.40
2019-04-07T06:34:29.011Z,9.30
2019-04-07T06:36:59.043Z,9.40
2019-04-07T06:39:31.856Z,9.40
2019-04-07T06:42:01.434Z,9.40
2019-04-07T06:44:30.132Z,9.60
2019-04-07T06:47:03.448Z,9.50
2019-04-07T06:49:43.366Z,9.50
2019-04-07T06:52:12.098Z,9.40
2019-04-07T06:55:00.183Z,9.40
2019-04-07T06:57:37.528Z,9.40
2019-04-07T07:00:08.445Z,9.40
2019-04-07T07:02:40.716Z,9.60
2019-04-07T07:05:30.060Z,9.50
2019-04-07T07:08:00.813Z,9.70
2019-04-07T07:10:46.777Z,9.70
2019-04-07T07:16:11.475Z,9.90
2019-04-07T07:19:01.555Z,9.80
2019-04-07T07:21:29.577Z,9.80
2019-04-07T07:23:59.109Z,9.90
2019-04-07T07:26:32.986Z,9.90
2019-04-07T07:29:00.913Z,9.80
2019-04-07T07:31:30.827Z,9.80
2019-04-07T07:34:21.305Z,10.00
2019-04-07T07:36:53.429Z,10.00
2019-04-07T07:39:23.162Z,10.00
2019-04-07T07:41:53.999Z,10.00
2019-04-07T07:44:24.603Z,10.10
2019-04-07T07:46:55.487Z,10.50
2019-04-07T07:49:28.118Z,10.50
2019-04-07T07:51:57.030Z,10.30
2019-04-07T07:54:33.473Z,10.20
2019-04-07T07:57:03.463Z,10.20
2019-04-07T07:59:53.172Z,10.30
2019-04-07T08:02:23.760Z,10.50
2019-04-07T08:04:57.327Z,10.50
2019-04-07T08:07:24.729Z,10.40
2019-04-07T08:09:56.025Z,10.40
2019-04-07T08:12:25.532Z,10.40
2019-04-07T08:14:58.445Z,10.40
2019-04-07T08:17:27.729Z,10.30
2019-04-07T08:19:57.839Z,10.30
2019-04-07T08:22:40.547Z,10.20
2019-04-07T08:25:06.608Z,10.40
2019-04-07T08:27:36.954Z,10.50
2019-04-07T08:30:11.834Z,10.50
2019-04-07T08:32:38.871Z,10.50
2019-04-07T08:35:08.905Z,10.70
2019-04-07T08:37:40.514Z,10.90
2019-04-07T08:40:10.902Z,10.90
2019-04-07T08:43:01.214Z,11.00
2019-04-07T08:45:32.696Z,11.10
2019-04-07T08:48:01.426Z,11.00
2019-04-07T08:50:33.182Z,11.00
2019-04-07T08:53:03.194Z,11.00
2019-04-07T08:55:33.437Z,11.10
2019-04-07T08:58:05.546Z,11.00
2019-04-07T09:00:33.833Z,11.10
2019-04-07T09:03:11.102Z,11.20
2019-04-07T09:05:35.461Z,11.20
2019-04-07T09:08:06.358Z,11.30
2019-04-07T09:10:39.352Z,11.20
2019-04-07T09:13:12.128Z,11.10
2019-04-07T09:15:43.865Z,11.20
2019-04-07T09:18:19.161Z,11.30
2019-04-07T09:20:51.858Z,11.30
2019-04-07T09:23:25.258Z,11.60
2019-04-07T09:26:02.702Z,11.60
2019-04-07T09:28:33.167Z,11.70
2019-04-07T09:31:13.101Z,11.60
2019-04-07T09:33:51.869Z,11.60
2019-04-07T09:36:22.331Z,11.90
2019-04-07T09:38:52.499Z,12.00
2019-04-07T09:41:27.406Z,12.10
2019-04-07T09:46:51.204Z,12.00
2019-04-07T09:49:35.535Z,11.90
2019-04-07T09:52:10.344Z,12.00
2019-04-07T09:54:38.698Z,12.10
2019-04-07T09:57:18.005Z,12.10
2019-04-07T09:59:56.456Z,12.10
2019-04-07T10:02:44.921Z,12.20
2019-04-07T10:05:53.582Z,12.20
2019-04-07T10:08:43.277Z,12.20
2019-04-07T10:11:14.737Z,12.20
2019-04-07T10:14:03.464Z,12.20
2019-04-07T10:16:48.520Z,12.30
2019-04-07T10:19:18.873Z,12.30
2019-04-07T10:21:52.693Z,12.40
2019-04-07T10:24:23.505Z,12.40
2019-04-07T10:26:56.348Z,12.50
2019-04-07T10:29:42.738Z,12.50
2019-04-07T10:32:15.175Z,12.60
2019-04-07T10:34:46.520Z,12.40
2019-04-07T10:37:36.203Z,12.60
2019-04-07T10:40:24.345Z,12.60
2019-04-07T10:43:09.565Z,12.70
2019-04-07T10:45:57.985Z,12.90
2019-04-07T10:48:29.783Z,12.90
2019-04-07T10:51:02.213Z,13.00
2019-04-07T10:53:41.664Z,13.10
2019-04-07T10:56:14.361Z,13.20
2019-04-07T10:58:50.047Z,13.30
2019-04-07T11:01:23.594Z,13.40
2019-04-07T11:03:57.599Z,13.30
2019-04-07T11:06:34.646Z,13.40
2019-04-07T11:09:11.200Z,13.30
2019-04-07T11:12:00.048Z,13.30
2019-04-07T11:14:29.640Z,13.30
2019-04-07T11:17:02.625Z,13.40
2019-04-07T11:19:36.290Z,13.40
2019-04-07T11:22:12.621Z,13.50
2019-04-07T11:24:55.780Z,13.50
2019-04-07T11:27:40.879Z,13.50
2019-04-07T11:30:27.323Z,13.50
2019-04-07T11:33:06.099Z,13.60
2019-04-07T11:35:45.644Z,13.50
2019-04-07T11:38:32.230Z,13.70
2019-04-07T11:41:02.496Z,13.70
2019-04-07T11:43:40.926Z,13.80
2019-04-07T11:46:14.010Z,13.90
2019-04-07T11:49:09.406Z,13.90
2019-04-07T11:51:45.046Z,13.80
2019-04-07T11:54:18.282Z,13.90
2019-04-07T11:59:39.359Z,14.10
2019-04-07T12:02:28.219Z,14.00
2019-04-07T12:05:15.936Z,14.10
2019-04-07T12:07:55.770Z,14.00
2019-04-07T12:10:34.502Z,14.00
2019-04-07T12:13:11.180Z,14.00
2019-04-07T12:15:45.206Z,14.20
2019-04-07T12:18:21.477Z,14.20
2019-04-07T12:20:54.332Z,14.30
2019-04-07T12:23:40.264Z,14.30
2019-04-07T12:26:28.108Z,14.10
2019-04-07T12:29:14.440Z,14.00
2019-04-07T12:31:59.664Z,14.10
2019-04-07T12:34:36.141Z,14.10
2019-04-07T12:37:07.797Z,14.20
2019-04-07T12:39:49.532Z,14.10
2019-04-07T12:42:22.336Z,14.10
2019-04-07T12:45:10.050Z,14.30
2019-04-07T12:47:41.094Z,14.30
2019-04-07T12:50:17.384Z,14.40
2019-04-07T12:52:57.819Z,14.70
2019-04-07T12:55:26.447Z,14.70
2019-04-07T12:57:57.406Z,14.80
2019-04-07T13:00:30.844Z,14.70
2019-04-07T13:03:00.573Z,14.90
2019-04-07T13:05:36.788Z,14.80
2019-04-07T13:08:12.684Z,14.70
2019-04-07T13:11:04.716Z,14.60
2019-04-07T13:13:34.233Z,14.80
2019-04-07T13:16:27.824Z,14.90
2019-04-07T13:19:15.708Z,14.80
2019-04-07T13:21:57.320Z,14.80
2019-04-07T13:24:41.387Z,14.90
2019-04-07T13:27:27.732Z,15.00
2019-04-07T13:29:57.639Z,15.00
2019-04-07T13:32:38.060Z,14.90
2019-04-07T13:35:01.217Z,15.00
2019-04-07T13:37:38.379Z,15.40
2019-04-07T13:40:18.296Z,15.40
2019-04-07T13:42:52.094Z,15.50
2019-04-07T13:45:32.860Z,15.40
2019-04-07T13:48:02.836Z,15.60
2019-04-07T13:50:35.467Z,15.50
2019-04-07T13:53:12.163Z,15.20
2019-04-07T13:55:43.890Z,15.20
2019-04-07T13:58:25.103Z,15.30
2019-04-07T14:01:07.394Z,15.40
2019-04-07T14:04:00.098Z,15.30
2019-04-07T14:06:48.999Z,15.30
2019-04-07T14:09:22.265Z,15.20
2019-04-07T14:12:04.038Z,15.10
2019-04-07T14:14:42.612Z,15.20
2019-04-07T14:20:37.565Z,15.10
2019-04-07T14:23:16.600Z,15.10
2019-04-07T14:26:05.696Z,15.00
2019-04-07T14:28:35.697Z,15.00
2019-04-07T14:31:16.496Z,14.90
2019-04-07T14:33:58.982Z,15.00
2019-04-07T14:36:29.999Z,14.80
2019-04-07T14:39:06.632Z,14.80
2019-04-07T14:41:36.860Z,14.80
2019-04-07T14:44:35.837Z,15.00
2019-04-07T14:47:10.854Z,15.00
2019-04-07T14:50:09.069Z,14.90
2019-04-07T14:52:57.102Z,14.80
2019-04-07T14:55:31.498Z,14.80
2019-04-07T14:58:03.138Z,14.80
2019-04-07T15:00:33.555Z,14.70
2019-04-07T15:03:04.070Z,14.70
2019-04-07T15:05:35.339Z,14.60
2019-04-07T15:08:11.675Z,14.70
2019-04-07T15:10:44.101Z,14.70
2019-04-07T15:13:14.429Z,14.70
2019-04-07T15:15:44.744Z,14.70
2019-04-07T15:18:16.494Z,14.60
2019-04-07T15:21:05.715Z,14.60
2019-04-07T15:23:36.778Z,14.70
2019-04-07T15:26:06.197Z,14.60
2019-04-07T15:28:37.201Z,14.60
2019-04-07T15:31:06.855Z,14.60
2019-04-07T15:33:38.216Z,14.50
2019-04-07T15:36:09.296Z,14.40
2019-04-07T15:38:41.467Z,14.50
2019-04-07T15:41:15.376Z,14.40
2019-04-07T15:43:41.146Z,14.40
2019-04-07T15:46:10.671Z,14.40
2019-04-07T16:17:49.124Z,14.20
2019-04-07T16:20:24.553Z,14.20
2019-04-07T16:22:52.652Z,14.30
2019-04-07T16:25:25.400Z,14.20
2019-04-07T16:27:53.170Z,14.20
2019-04-07T16:30:23.492Z,14.20
2019-04-07T16:32:54.747Z,14.20
2019-04-07T16:35:26.266Z,14.20
2019-04-07T16:37:55.512Z,14.20
2019-04-07T16:40:33.926Z,14.20
2019-04-07T16:43:10.957Z,14.10
2019-04-07T16:45:34.003Z,14.10
2019-04-07T16:48:06.343Z,14.10
2019-04-07T16:50:35.047Z,14.10
2019-04-07T16:55:52.748Z,14.10
2019-04-07T16:58:26.420Z,14.00
2019-04-07T17:00:56.770Z,14.00
2019-04-07T17:03:27.564Z,14.00
2019-04-07T17:06:00.035Z,14.00
2019-04-07T17:08:28.834Z,13.90
2019-04-07T17:11:01.642Z,13.90
2019-04-07T17:13:37.425Z,14.00
2019-04-07T17:15:59.885Z,13.90
2019-04-07T17:18:37.516Z,13.90
2019-04-07T17:21:12.742Z,14.00
2019-04-07T17:23:41.091Z,14.00
2019-04-07T17:26:16.562Z,13.90
2019-04-07T17:28:48.208Z,13.90
2019-04-07T17:31:17.603Z,13.90
2019-04-07T17:33:47.657Z,14.00
2019-04-07T17:36:21.101Z,14.00
2019-04-07T17:38:52.346Z,13.80
2019-04-07T17:41:23.436Z,13.90
2019-04-07T17:43:59.052Z,13.90
2019-04-07T17:46:26.535Z,13.80
2019-04-07T17:49:14.792Z,13.80
2019-04-07T17:51:53.989Z,13.80
2019-04-07T17:54:46.416Z,13.70
2019-04-07T17:57:21.291Z,13.80
2019-04-07T17:59:52.223Z,13.80
2019-04-07T18:02:22.861Z,13.70
2019-04-07T18:05:12.615Z,13.60
2019-04-07T18:07:43.500Z,13.60
2019-04-07T18:10:12.259Z,13.60
2019-04-07T18:13:01.088Z,13.50
2019-04-07T18:16:08.334Z,13.60
2019-04-07T18:18:38.262Z,13.60
2019-04-07T18:21:16.857Z,13.60
2019-04-07T18:24:03.494Z,13.50
2019-04-07T18:26:35.450Z,13.30
2019-04-07T18:29:25.720Z,13.20
2019-04-07T18:32:10.271Z,13.20
2019-04-07T18:34:39.713Z,13.10
2019-04-07T18:37:46.651Z,13.10
2019-04-07T18:41:00.382Z,13.00
2019-04-07T18:43:33.793Z,13.00
2019-04-07T18:46:10.110Z,12.90
2019-04-07T18:48:54.401Z,12.80
2019-04-07T18:51:44.568Z,12.80
2019-04-07T18:54:13.493Z,12.80
2019-04-07T18:57:11.887Z,12.80
2019-04-07T18:59:50.355Z,12.70
2019-04-07T19:02:30.045Z,12.60
2019-04-07T19:05:05.247Z,12.60
2019-04-07T19:07:53.510Z,12.60
2019-04-07T19:10:45.497Z,12.60
2019-04-07T19:13:24.715Z,12.60
2019-04-07T19:15:49.357Z,12.60
2019-04-07T19:18:28.411Z,12.50
2019-04-07T19:21:33.758Z,12.50
2019-04-07T19:24:21.354Z,12.50
2019-04-07T19:27:14.359Z,12.50
2019-04-07T19:29:44.869Z,12.50
2019-04-07T19:32:23.489Z,12.40
2019-04-07T19:37:44.314Z,12.40
2019-04-07T19:40:16.892Z,12.30
2019-04-07T19:43:28.314Z,12.20
2019-04-07T19:46:14.747Z,12.20
2019-04-07T19:48:50.251Z,12.20
2019-04-07T19:51:39.499Z,12.30
2019-04-07T19:54:21.728Z,12.20
2019-04-07T19:56:51.651Z,12.20
2019-04-07T19:59:23.824Z,12.20
2019-04-07T20:02:00.782Z,12.10
2019-04-07T20:04:43.989Z,12.10
2019-04-07T20:07:14.311Z,12.00
2019-04-07T20:09:50.568Z,12.10
2019-04-07T20:15:09.145Z,12.00
2019-04-07T20:17:43.391Z,12.00
2019-04-07T20:20:17.416Z,12.10
2019-04-07T20:22:56.425Z,12.20
2019-04-07T20:25:35.226Z,12.20
2019-04-07T20:28:20.717Z,12.10
2019-04-07T20:31:08.246Z,12.10
2019-04-07T20:33:38.060Z,12.00
2019-04-07T20:36:26.891Z,11.90
2019-04-07T20:38:58.533Z,11.90
2019-04-07T20:41:35.880Z,11.90
2019-04-07T20:44:14.374Z,11.90
2019-04-07T20:47:02.062Z,11.90
2019-04-07T20:49:38.052Z,11.90
2019-04-07T20:52:25.013Z,11.90
2019-04-07T20:54:54.254Z,11.90
2019-04-07T20:57:42.712Z,11.90
2019-04-07T21:00:30.794Z,11.90
2019-04-07T21:03:21.297Z,11.90
2019-04-07T21:05:56.055Z,11.80
2019-04-07T21:08:30.255Z,11.80
2019-04-07T21:11:07.506Z,11.90
2019-04-07T21:13:43.046Z,11.90
2019-04-07T21:16:29.947Z,11.80
2019-04-07T21:19:16.960Z,11.80
2019-04-07T21:21:47.838Z,11.80
2019-04-07T21:24:40.083Z,11.70
2019-04-07T21:30:00.873Z,11.70
2019-04-07T21:32:51.364Z,11.70
2019-04-07T21:35:19.399Z,11.80
2019-04-07T21:37:49.711Z,11.70
2019-04-07T21:40:20.952Z,11.80
2019-04-07T21:43:00.538Z,11.70
2019-04-07T21:45:47.121Z,11.70
2019-04-07T21:48:31.987Z,11.70
2019-04-07T21:51:26.916Z,11.70
2019-04-07T21:53:59.948Z,11.70
2019-04-07T21:56:49.527Z,11.80
2019-04-07T21:59:33.620Z,11.90
2019-04-07T22:02:02.743Z,11.90
2019-04-07T22:04:34.577Z,11.90
2019-04-07T22:07:23.124Z,11.80
2019-04-07T22:09:53.432Z,11.80
2019-04-07T22:12:29.527Z,11.80
2019-04-07T22:14:54.908Z,11.80
2019-04-07T22:17:26.171Z,11.80
2019-04-07T22:19:56.520Z,11.90
2019-04-07T22:22:31.089Z,11.80
2019-04-07T22:25:01.229Z,11.70
2019-04-07T22:27:31.312Z,11.70
2019-04-07T22:30:04.808Z,11.70
2019-04-07T22:32:31.965Z,11.70
2019-04-07T22:35:06.461Z,11.70
2019-04-07T22:37:34.524Z,11.80
2019-04-07T22:40:05.157Z,11.70
2019-04-07T22:42:35.068Z,11.70
2019-04-07T22:45:06.014Z,11.70
2019-04-07T22:47:35.787Z,11.70
2019-04-07T22:50:06.732Z,11.60
2019-04-07T22:52:55.461Z,11.60
2019-04-07T22:55:25.774Z,11.60
2019-04-07T22:57:56.089Z,11.60
2019-04-07T23:00:28.757Z,11.50
2019-04-07T23:02:59.496Z,11.50
2019-04-07T23:05:29.751Z,11.50
2019-04-07T23:08:05.860Z,11.50
2019-04-07T23:10:36.164Z,11.40
2019-04-07T23:13:06.479Z,11.40
2019-04-07T23:15:43.753Z,11.20
2019-04-07T23:18:07.900Z,11.20
2019-04-07T23:20:42.352Z,11.20
2019-04-07T23:23:12.647Z,11.10
2019-04-07T23:25:47.053Z,11.10
2019-04-07T23:28:19.436Z,11.00
2019-04-07T23:30:49.746Z,11.10
2019-04-07T23:33:22.308Z,11.20
2019-04-07T23:35:53.471Z,11.10
2019-04-07T23:38:24.635Z,11.10
2019-04-07T23:41:14.354Z,11.20
2019-04-07T23:43:45.979Z,11.20
2019-04-07T23:46:23.178Z,11.20
2019-04-07T23:48:46.095Z,11.20
2019-04-07T23:51:21.523Z,11.20
2019-04-07T23:54:07.251Z,11.10
2019-04-07T23:56:36.387Z,11.10
2019-04-07T23:59:06.696Z,11.20
